Time;durP1;ratioP1;P1;durP2;ratioP2;P2;SDS_P1;SDS_P2;PMS_P1;PMS_P2;Temp;Humidity;BMP_temperature;BMP_pressure;BME280_temperature;BME280_humidity;BME280_pressure;Samples;Min_cycle;Max_cycle;Signal;HPM_P1;HPM_P2
2022/06/12 00:01:25;;;;;;;5.20;0.60;;;16.30;71.90;;;;;;5018155;28;20481;-91
2022/06/12 00:03:51;;;;;;;3.42;0.68;;;16.20;71.80;;;;;;5017996;28;20034;-92
2022/06/12 00:06:19;;;;;;;3.97;0.75;;;16.20;71.70;;;;;;5036528;28;20025;-93
2022/06/12 00:08:45;;;;;;;3.95;0.45;;;16.20;72.40;;;;;;5034759;28;20022;-91
2022/06/12 00:11:16;;;;;;;3.83;0.50;;;16.10;72.80;;;;;;5033737;28;20034;-92
2022/06/12 00:13:53;;;;;;;4.43;0.50;;;16.10;73.10;;;;;;5036401;28;20021;-92
2022/06/12 00:16:20;;;;;;;3.85;0.45;;;16.00;73.30;;;;;;5034914;28;20018;-89
2022/06/12 00:18:46;;;;;;;1.90;0.40;;;16.00;73.40;;;;;;5034094;28;20063;-90
2022/06/12 00:21:12;;;;;;;2.28;0.50;;;16.00;73.70;;;;;;5034543;28;20033;-90
2022/06/12 00:23:49;;;;;;;4.45;0.50;;;15.90;73.90;;;;;;5034309;28;20095;-91
2022/06/12 00:26:23;;;;;;;6.60;0.60;;;15.90;74.40;;;;;;5034414;28;20477;-92
2022/06/12 00:28:56;;;;;;;3.97;0.68;;;15.90;74.70;;;;;;5034669;28;20033;-92
2022/06/12 00:31:27;;;;;;;3.17;0.60;;;15.80;74.90;;;;;;5034717;28;20454;-90
2022/06/12 00:33:53;;;;;;;6.90;1.20;;;15.80;75.00;;;;;;5034463;28;20033;-88
2022/06/12 00:36:19;;;;;;;4.47;0.65;;;15.70;75.20;;;;;;5034426;28;20405;-89
2022/06/12 00:38:45;;;;;;;3.97;0.95;;;15.70;75.40;;;;;;5017009;28;20060;-89
2022/06/12 00:41:10;;;;;;;4.80;1.00;;;15.70;75.60;;;;;;5016768;28;20040;-88
2022/06/12 00:43:37;;;;;;;7.78;1.70;;;15.60;75.70;;;;;;5033221;28;20543;-88
2022/06/12 00:46:05;;;;;;;6.80;1.42;;;15.60;76.00;;;;;;5033750;28;20033;-88
2022/06/12 00:48:40;;;;;;;7.25;2.00;;;15.60;76.20;;;;;;5033404;28;20547;-89
2022/06/12 00:51:12;;;;;;;4.45;1.63;;;15.50;76.70;;;;;;5017044;28;20121;-88
2022/06/12 00:53:46;;;;;;;5.88;1.92;;;15.50;77.20;;;;;;5033347;28;20112;-89
2022/06/12 00:56:15;;;;;;;6.38;1.40;;;15.40;77.60;;;;;;5033714;28;20029;-90
2022/06/12 00:58:46;;;;;;;5.53;1.60;;;15.40;77.90;;;;;;5033593;28;20053;-92
2022/06/12 01:01:18;;;;;;;5.97;1.75;;;15.40;78.40;;;;;;5033906;28;20029;-91
2022/06/12 01:06:33;;;;;;;6.15;1.45;;;15.30;79.10;;;;;;5034249;28;20044;-90
2022/06/12 01:09:00;;;;;;;7.15;1.17;;;15.20;79.20;;;;;;5033748;28;20025;-91
2022/06/12 01:11:25;;;;;;;8.95;1.40;;;15.20;79.40;;;;;;5033339;28;20021;-90
2022/06/12 01:13:51;;;;;;;6.75;1.35;;;15.20;79.60;;;;;;5016946;28;20492;-91
2022/06/12 01:16:19;;;;;;;5.88;1.25;;;15.10;79.70;;;;;;5032950;28;20087;-89
2022/06/12 01:18:57;;;;;;;5.72;1.35;;;15.10;80.00;;;;;;5034101;28;20021;-89
2022/06/12 01:21:33;;;;;;;7.53;1.45;;;15.10;80.20;;;;;;5033143;28;20057;-89
2022/06/12 01:24:46;;;;;;;7.78;1.52;;;15.00;80.20;;;;;;5033201;28;20059;-90
2022/06/12 01:27:18;;;;;;;5.57;1.02;;;15.00;80.50;;;;;;5019658;28;20109;-88
2022/06/12 01:30:04;;;;;;;10.27;1.85;;;15.00;80.50;;;;;;5033903;28;20022;-88
2022/06/12 01:33:08;;;;;;;6.30;1.33;;;15.00;80.70;;;;;;5032454;28;20037;-87
2022/06/12 01:35:54;;;;;;;4.60;1.15;;;14.90;80.90;;;;;;5016275;28;20038;-88
2022/06/12 01:38:27;;;;;;;7.97;1.42;;;14.90;81.00;;;;;;5032657;28;20119;-88
2022/06/12 01:41:17;;;;;;;7.20;1.70;;;14.80;81.10;;;;;;5035315;28;20052;-90
2022/06/12 01:43:55;;;;;;;10.18;1.42;;;14.80;81.50;;;;;;5037141;28;20064;-90
2022/06/12 01:46:28;;;;;;;7.63;1.23;;;14.80;81.50;;;;;;5037310;28;20492;-90
2022/06/12 01:49:24;;;;;;;5.15;1.10;;;14.70;81.60;;;;;;5037374;28;20025;-93
2022/06/12 01:52:29;;;;;;;12.10;1.42;;;14.60;82.00;;;;;;5037408;28;20013;-90
2022/06/12 01:55:18;;;;;;;6.57;1.17;;;14.60;82.30;;;;;;5036687;28;20077;-89
2022/06/12 01:58:06;;;;;;;6.35;1.58;;;14.60;82.50;;;;;;5037074;28;20053;-90
2022/06/12 02:00:33;;;;;;;7.00;1.48;;;14.60;82.60;;;;;;5036665;28;20108;-88
2022/06/12 02:03:32;;;;;;;6.97;1.52;;;14.60;82.80;;;;;;5020233;28;20351;-89
2022/06/12 02:06:17;;;;;;;7.22;1.35;;;14.50;83.10;;;;;;5036535;28;20060;-90
2022/06/12 02:08:51;;;;;;;3.75;0.90;;;14.50;83.30;;;;;;5036651;28;20104;-90
2022/06/12 02:14:16;;;;;;;4.47;1.45;;;14.40;83.60;;;;;;5037942;28;20042;-90
2022/06/12 02:16:49;;;;;;;6.13;1.63;;;14.40;83.80;;;;;;5035139;28;20024;-89
2022/06/12 02:19:23;;;;;;;8.52;1.73;;;14.40;84.10;;;;;;5020566;28;20025;-88
2022/06/12 02:21:58;;;;;;;5.32;2.00;;;14.30;84.40;;;;;;5015659;28;20101;-89
2022/06/12 02:24:38;;;;;;;6.53;1.80;;;14.20;84.60;;;;;;5015142;28;20040;-88
2022/06/12 02:27:11;;;;;;;7.88;1.40;;;14.30;84.80;;;;;;5016264;28;20026;-89
2022/06/12 02:29:44;;;;;;;6.37;1.50;;;14.20;84.90;;;;;;5015863;28;20028;-89
2022/06/12 02:32:21;;;;;;;7.60;1.50;;;14.20;85.00;;;;;;5014901;28;20022;-88
2022/06/12 02:35:14;;;;;;;9.52;2.08;;;14.20;85.10;;;;;;5015711;28;20054;-87
2022/06/12 02:37:45;;;;;;;6.97;1.65;;;14.20;85.30;;;;;;5016123;28;20050;-87
2022/06/12 02:40:43;;;;;;;6.20;1.42;;;14.10;85.50;;;;;;5015578;28;20022;-88
2022/06/12 02:43:15;;;;;;;9.73;1.58;;;14.10;85.90;;;;;;5015381;28;20149;-88
2022/06/12 02:45:55;;;;;;;7.80;1.63;;;14.10;86.10;;;;;;5015340;28;20088;-89
2022/06/12 02:48:21;;;;;;;8.00;1.58;;;14.10;86.50;;;;;;5015707;28;20025;-90
2022/06/12 02:51:11;;;;;;;9.48;1.92;;;14.00;86.80;;;;;;5015753;28;20033;-88
2022/06/12 02:54:07;;;;;;;7.47;1.75;;;14.00;87.30;;;;;;5015411;28;20030;-88
2022/06/12 02:56:43;;;;;;;7.85;1.60;;;14.00;87.70;;;;;;4982894;28;20092;-89
2022/06/12 02:59:37;;;;;;;12.25;2.05;;;14.00;87.80;;;;;;5017160;28;20026;-90
2022/06/12 03:02:10;;;;;;;11.82;1.70;;;14.00;88.10;;;;;;5015991;28;20034;-90
2022/06/12 03:04:45;;;;;;;7.20;1.73;;;13.90;88.30;;;;;;5016018;28;20038;-91
2022/06/12 03:07:11;;;;;;;6.18;1.30;;;13.90;88.70;;;;;;5016023;28;20018;-90
2022/06/12 03:09:37;;;;;;;11.52;2.15;;;13.80;88.90;;;;;;5016484;28;20113;-91
2022/06/12 03:12:05;;;;;;;10.70;1.73;;;13.90;89.30;;;;;;5015896;28;20104;-88
2022/06/12 03:14:30;;;;;;;6.75;1.50;;;13.90;89.60;;;;;;5015002;28;20540;-87
2022/06/12 03:16:56;;;;;;;10.60;2.38;;;13.90;89.80;;;;;;5015869;28;20018;-88
2022/06/12 03:19:26;;;;;;;11.70;2.05;;;13.90;90.00;;;;;;4998888;28;20498;-88
2022/06/12 03:21:57;;;;;;;7.47;1.58;;;13.90;90.00;;;;;;5015687;28;20022;-90
2022/06/12 03:24:46;;;;;;;9.55;2.08;;;13.80;90.10;;;;;;5016622;28;20069;-91
2022/06/12 03:27:34;;;;;;;8.65;2.00;;;13.80;90.20;;;;;;5015271;28;20026;-89
2022/06/12 03:30:02;;;;;;;7.82;1.88;;;13.80;90.20;;;;;;5015570;28;20018;-89
2022/06/12 03:32:41;;;;;;;8.25;2.22;;;13.80;90.30;;;;;;5015435;28;20028;-90
2022/06/12 03:35:27;;;;;;;13.10;2.40;;;13.80;90.40;;;;;;5022235;28;20056;-89
2022/06/12 03:38:22;;;;;;;9.35;2.33;;;13.80;90.50;;;;;;5027385;28;20042;-89
2022/06/12 03:41:15;;;;;;;10.85;2.25;;;13.80;90.60;;;;;;5025484;28;20026;-89
2022/06/12 03:44:02;;;;;;;8.50;1.77;;;13.80;90.70;;;;;;5031272;28;20028;-89
2022/06/12 03:46:40;;;;;;;8.38;1.95;;;13.80;90.80;;;;;;5032642;28;20041;-90
2022/06/12 03:49:17;;;;;;;9.48;1.65;;;13.80;90.80;;;;;;5032098;28;20112;-88
2022/06/12 03:51:53;;;;;;;11.32;2.08;;;13.80;90.90;;;;;;5031322;28;20041;-87
2022/06/12 03:54:41;;;;;;;11.32;2.33;;;13.80;91.00;;;;;;5031364;28;20029;-87
2022/06/12 04:00:21;;;;;;;10.88;1.77;;;13.80;91.20;;;;;;5016568;28;20457;-89
2022/06/12 04:03:22;;;;;;;11.88;2.53;;;13.80;91.30;;;;;;5030435;28;20433;-88
2022/06/12 04:05:58;;;;;;;12.88;2.30;;;13.90;91.50;;;;;;5030718;28;20394;-88
2022/06/12 04:08:29;;;;;;;7.93;2.83;;;13.80;91.50;;;;;;5015699;28;20029;-88
2022/06/12 04:10:56;;;;;;;16.13;2.22;;;13.90;91.60;;;;;;5031188;28;20030;-88
2022/06/12 04:13:23;;;;;;;6.97;1.90;;;13.80;91.70;;;;;;5015379;28;20030;-88
2022/06/12 04:15:58;;;;;;;9.00;1.95;;;13.90;92.00;;;;;;5015024;28;20037;-89
2022/06/12 04:18:26;;;;;;;14.18;2.22;;;13.90;91.90;;;;;;5031150;28;20022;-89
2022/06/12 04:20:54;;;;;;;16.45;2.10;;;13.90;92.00;;;;;;5014405;28;20052;-88
2022/06/12 04:24:04;;;;;;;13.60;2.67;;;13.90;92.10;;;;;;5030649;28;20030;-89
2022/06/12 04:26:38;;;;;;;8.48;1.98;;;13.90;92.10;;;;;;4974153;28;20031;-89
2022/06/12 04:29:30;;;;;;;9.85;2.30;;;13.90;92.10;;;;;;5008825;28;20058;-89
2022/06/12 04:32:00;;;;;;;6.60;2.13;;;13.90;92.20;;;;;;5014606;28;20068;-89
2022/06/12 04:34:33;;;;;;;9.52;2.13;;;13.80;92.20;;;;;;5030138;28;20060;-91
2022/06/12 04:37:04;;;;;;;10.00;2.03;;;13.90;92.20;;;;;;5015729;28;20049;-91
2022/06/12 04:39:33;;;;;;;9.60;2.45;;;13.90;92.30;;;;;;5031287;28;20018;-92
2022/06/12 04:42:00;;;;;;;12.45;2.33;;;13.90;92.30;;;;;;5016190;28;20081;-94
2022/06/12 04:44:26;;;;;;;10.43;2.00;;;13.90;92.40;;;;;;5015526;28;20042;-92
2022/06/12 04:46:55;;;;;;;11.02;2.60;;;14.00;92.50;;;;;;5032884;28;20057;-91
2022/06/12 04:49:28;;;;;;;9.30;2.33;;;14.00;92.50;;;;;;5031603;28;20026;-91
2022/06/12 04:51:56;;;;;;;9.50;2.67;;;14.00;92.60;;;;;;5014619;28;20029;-91
2022/06/12 04:54:23;;;;;;;7.38;2.40;;;14.00;92.60;;;;;;5030792;28;20022;-91
2022/06/12 04:56:49;;;;;;;9.45;2.28;;;14.10;92.70;;;;;;5030871;28;20167;-92
2022/06/12 04:59:17;;;;;;;10.52;2.67;;;14.10;92.80;;;;;;5015210;28;20033;-93
2022/06/12 05:01:43;;;;;;;12.18;2.58;;;14.10;92.90;;;;;;5031350;28;20033;-92
2022/06/12 05:04:10;;;;;;;15.82;3.13;;;14.10;93.00;;;;;;5016665;28;20038;-91
2022/06/12 05:06:37;;;;;;;10.43;2.72;;;14.10;93.00;;;;;;5032411;28;20107;-92
2022/06/12 05:09:04;;;;;;;10.02;2.53;;;14.20;93.10;;;;;;5030788;28;20022;-92
2022/06/12 05:11:30;;;;;;;9.00;2.30;;;14.20;93.10;;;;;;5030641;28;20026;-93
2022/06/12 05:13:56;;;;;;;13.70;2.78;;;14.30;93.30;;;;;;4997546;28;20110;-92
2022/06/12 05:16:36;;;;;;;13.05;2.80;;;14.20;93.30;;;;;;5016255;28;20104;-90
2022/06/12 05:19:04;;;;;;;17.35;2.90;;;14.30;93.50;;;;;;5026480;28;20026;-90
2022/06/12 05:21:31;;;;;;;10.95;2.60;;;14.30;93.50;;;;;;5026871;28;20046;-91
2022/06/12 05:23:58;;;;;;;15.75;3.58;;;14.30;93.60;;;;;;5028578;28;20473;-89
2022/06/12 05:26:24;;;;;;;12.10;2.92;;;14.40;93.80;;;;;;5024970;28;20022;-90
2022/06/12 05:28:50;;;;;;;14.27;3.13;;;14.40;93.80;;;;;;5015727;28;20536;-89
2022/06/12 05:31:16;;;;;;;9.07;2.80;;;14.40;93.90;;;;;;5012685;28;20021;-92
2022/06/12 05:33:43;;;;;;;14.20;3.10;;;14.50;94.00;;;;;;5014965;28;20030;-89
2022/06/12 05:36:13;;;;;;;17.70;3.80;;;14.50;94.20;;;;;;5013957;28;20195;-91
2022/06/12 05:38:39;;;;;;;11.00;2.95;;;14.50;94.30;;;;;;5013921;28;20026;-92
2022/06/12 05:41:05;;;;;;;11.68;2.70;;;14.60;94.30;;;;;;5014037;28;20029;-90
2022/06/12 05:43:31;;;;;;;10.40;2.80;;;14.60;94.50;;;;;;5013672;28;20034;-92
2022/06/12 05:45:57;;;;;;;13.13;3.63;;;14.60;94.40;;;;;;5014835;28;20108;-91
2022/06/12 05:48:23;;;;;;;7.55;2.85;;;14.70;94.60;;;;;;4996727;28;20022;-90
2022/06/12 05:50:57;;;;;;;14.00;3.15;;;14.70;94.50;;;;;;5013786;28;20117;-91
2022/06/12 05:53:23;;;;;;;;;;;14.80;94.50;;;;;;5014538;28;20080;-90
2022/06/12 05:55:50;;;;;;;13.20;3.13;;;14.90;94.60;;;;;;4998452;28;19960;-94
2022/06/12 05:58:17;;;;;;;13.65;3.42;;;14.90;94.80;;;;;;5015559;28;20054;-94
2022/06/12 06:00:43;;;;;;;13.93;3.40;;;15.00;94.70;;;;;;4983126;28;20398;-95
2022/06/12 06:03:12;;;;;;;14.95;4.05;;;15.00;94.70;;;;;;5014184;28;20037;-94
2022/06/12 06:05:39;;;;;;;12.57;3.55;;;15.10;94.90;;;;;;4999418;28;20070;-94
2022/06/12 06:08:08;;;;;;;11.13;3.28;;;15.10;94.90;;;;;;5015218;28;20034;-93
2022/06/12 06:10:39;;;;;;;17.48;4.20;;;15.10;95.00;;;;;;4997629;28;20030;-87
2022/06/12 06:13:09;;;;;;;12.43;4.57;;;15.20;95.00;;;;;;5012590;28;20029;-88
2022/06/12 06:15:36;;;;;;;15.63;3.67;;;15.20;95.20;;;;;;5014066;28;20022;-89
2022/06/12 06:18:09;;;;;;;16.30;3.55;;;15.30;95.10;;;;;;5013109;28;20026;-91
2022/06/12 06:20:37;;;;;;;15.48;3.95;;;15.30;95.30;;;;;;5012295;28;20497;-88
2022/06/12 06:23:03;;;;;;;19.55;3.92;;;15.40;95.50;;;;;;5012526;28;20064;-88
2022/06/12 06:25:31;;;;;;;15.50;3.60;;;15.50;95.30;;;;;;5012704;28;20089;-89
2022/06/12 06:27:57;;;;;;;16.55;3.70;;;15.50;95.30;;;;;;5016593;28;20035;-89
2022/06/12 06:30:25;;;;;;;14.43;4.30;;;15.50;95.40;;;;;;5017376;28;20030;-94
2022/06/12 06:32:51;;;;;;;11.85;3.47;;;15.60;95.30;;;;;;5020672;28;20037;-91
2022/06/12 06:35:20;;;;;;;12.63;3.88;;;15.70;95.30;;;;;;5017812;28;20080;-92
2022/06/12 06:37:47;;;;;;;14.10;3.55;;;15.70;95.30;;;;;;5017082;28;20048;-88
2022/06/12 06:40:15;;;;;;;14.02;4.18;;;15.70;95.30;;;;;;5000748;28;20037;-91
2022/06/12 06:42:41;;;;;;;15.25;3.75;;;15.80;95.30;;;;;;5017210;28;20054;-87
2022/06/12 06:47:52;;;;;;;25.02;6.53;;;15.90;95.20;;;;;;5016624;28;20048;-92
2022/06/12 06:50:20;;;;;;;15.35;4.25;;;15.90;95.10;;;;;;5017626;28;20385;-92
2022/06/12 06:52:45;;;;;;;17.65;3.83;;;15.90;95.10;;;;;;5018138;28;20022;-93
2022/06/12 06:55:13;;;;;;;20.85;5.15;;;16.00;95.20;;;;;;5000543;28;20044;-90
2022/06/12 06:57:43;;;;;;;16.63;4.65;;;16.10;95.10;;;;;;5017634;28;20038;-92
2022/06/12 07:00:13;;;;;;;19.88;4.43;;;16.10;95.10;;;;;;5016078;28;20022;-92
2022/06/12 07:02:40;;;;;;;14.88;3.92;;;16.10;95.00;;;;;;5017014;28;20029;-92
2022/06/12 07:05:06;;;;;;;15.20;4.57;;;16.20;95.00;;;;;;5018008;28;20447;-92
2022/06/12 07:07:36;;;;;;;12.20;4.22;;;16.30;95.00;;;;;;5024206;28;20033;-91
2022/06/12 07:10:04;;;;;;;24.23;4.80;;;16.30;95.00;;;;;;5032497;28;20021;-90
2022/06/12 07:12:30;;;;;;;20.48;5.75;;;16.40;95.00;;;;;;5016759;28;20030;-91
2022/06/12 07:14:55;;;;;;;17.27;5.68;;;16.40;95.00;;;;;;5023839;28;20030;-92
2022/06/12 07:17:21;;;;;;;17.15;4.28;;;16.50;95.00;;;;;;5028538;28;20072;-92
2022/06/12 07:19:47;;;;;;;11.52;4.03;;;16.60;95.00;;;;;;4997684;28;20052;-91
2022/06/12 07:22:12;;;;;;;17.65;4.75;;;16.60;94.90;;;;;;5025510;28;20052;-92
2022/06/12 07:24:38;;;;;;;15.50;3.30;;;16.70;94.90;;;;;;5017478;28;20052;-88
2022/06/12 07:27:04;;;;;;;16.02;3.58;;;16.70;94.90;;;;;;5018762;28;20025;-92
2022/06/12 07:29:30;;;;;;;14.23;2.63;;;16.90;94.70;;;;;;4999163;28;20423;-93
2022/06/12 07:31:59;;;;;;;13.60;2.38;;;16.90;94.50;;;;;;5031502;28;20489;-94
2022/06/12 07:34:25;;;;;;;13.27;3.08;;;17.00;94.20;;;;;;5030205;28;20452;-91
2022/06/12 07:36:53;;;;;;;12.35;2.78;;;17.10;93.80;;;;;;5017873;28;20041;-92
2022/06/12 07:39:25;;;;;;;14.10;2.83;;;17.20;93.40;;;;;;5016967;28;20073;-92
2022/06/12 07:41:52;;;;;;;16.90;2.83;;;17.20;93.20;;;;;;5027556;28;20034;-91
2022/06/12 07:44:21;;;;;;;11.95;3.50;;;17.30;92.90;;;;;;5027321;28;20065;-91
2022/06/12 07:46:49;;;;;;;12.85;2.92;;;17.30;92.60;;;;;;5028794;28;20026;-92
2022/06/12 07:49:16;;;;;;;15.50;2.40;;;17.40;92.60;;;;;;5028439;28;20049;-94
2022/06/12 07:51:42;;;;;;;13.82;3.15;;;17.60;92.50;;;;;;5024734;28;20045;-93
2022/06/12 07:54:07;;;;;;;16.23;3.38;;;17.70;92.30;;;;;;5028092;28;20065;-93
2022/06/12 07:56:33;;;;;;;13.27;2.72;;;17.80;92.10;;;;;;5026063;28;20056;-92
2022/06/12 07:58:59;;;;;;;17.27;3.20;;;17.90;92.00;;;;;;5030285;28;20075;-90
2022/06/12 08:01:26;;;;;;;12.52;2.92;;;18.00;91.60;;;;;;5022006;28;20026;-91
2022/06/12 08:03:53;;;;;;;13.00;2.97;;;18.10;91.40;;;;;;5028324;28;20120;-93
2022/06/12 08:06:18;;;;;;;11.38;2.72;;;18.10;91.10;;;;;;5031863;28;20036;-92
2022/06/12 08:08:44;;;;;;;13.25;3.05;;;18.30;91.10;;;;;;5041840;28;20120;-93
2022/06/12 08:11:11;;;;;;;11.90;2.35;;;18.30;91.20;;;;;;5041190;28;20029;-91
2022/06/12 08:13:37;;;;;;;15.02;2.65;;;18.40;91.00;;;;;;5023958;28;20044;-91
2022/06/12 08:16:03;;;;;;;10.02;2.47;;;18.50;90.70;;;;;;5010251;28;20120;-92
2022/06/12 08:18:29;;;;;;;12.77;2.78;;;18.50;90.10;;;;;;5041963;28;20085;-92
2022/06/12 08:20:59;;;;;;;11.45;2.58;;;18.50;89.80;;;;;;5039419;28;20026;-94
2022/06/12 08:23:33;;;;;;;8.40;2.35;;;18.50;89.20;;;;;;5035756;28;20026;-93
2022/06/12 08:26:08;;;;;;;16.63;2.85;;;18.60;89.00;;;;;;5031527;28;20041;-91
2022/06/12 08:28:45;;;;;;;14.65;2.85;;;18.60;88.50;;;;;;5017589;28;20026;-91
2022/06/12 08:31:14;;;;;;;16.52;2.58;;;18.70;88.00;;;;;;5027859;28;20033;-91
2022/06/12 08:33:42;;;;;;;10.88;2.30;;;18.70;87.70;;;;;;5021663;28;20029;-90
2022/06/12 08:36:11;;;;;;;14.65;2.40;;;18.70;87.40;;;;;;5016192;28;20125;-93
2022/06/12 08:38:37;;;;;;;8.57;2.05;;;18.80;87.20;;;;;;5014101;28;20028;-91
2022/06/12 08:41:19;;;;;;;13.65;2.17;;;18.80;86.90;;;;;;4998141;28;20034;-91
2022/06/12 08:44:04;;;;;;;10.00;1.98;;;18.90;87.00;;;;;;5015440;28;20022;-90
2022/06/12 08:46:41;;;;;;;11.50;2.70;;;18.90;87.00;;;;;;5013983;28;20026;-91
2022/06/12 08:49:35;;;;;;;11.40;2.53;;;19.10;87.00;;;;;;5013842;28;20017;-92
2022/06/12 08:52:24;;;;;;;12.85;3.10;;;19.20;86.90;;;;;;5026471;28;20026;-90
2022/06/12 08:55:16;;;;;;;10.25;2.25;;;19.20;86.40;;;;;;5033764;28;20030;-92
2022/06/12 08:58:08;;;;;;;8.43;1.63;;;19.30;86.00;;;;;;5034353;28;20037;-93
2022/06/12 09:00:36;;;;;;;8.27;1.77;;;19.40;86.00;;;;;;5029340;28;20033;-93
2022/06/12 09:03:08;;;;;;;13.70;2.22;;;19.50;85.70;;;;;;5034281;28;20377;-92
2022/06/12 09:05:58;;;;;;;7.95;1.73;;;19.50;84.90;;;;;;5033357;28;20029;-92
2022/06/12 09:08:34;;;;;;;8.63;1.65;;;19.60;84.50;;;;;;5034749;28;20525;-94
2022/06/12 09:11:32;;;;;;;9.60;2.25;;;19.70;84.20;;;;;;5034346;28;20105;-93
2022/06/12 09:14:29;;;;;;;16.27;2.63;;;19.80;84.20;;;;;;5033463;28;20030;-93
2022/06/12 09:17:07;;;;;;;11.90;2.45;;;19.90;83.40;;;;;;5018369;28;20064;-93
2022/06/12 09:19:49;;;;;;;10.68;1.92;;;20.00;83.10;;;;;;5013987;28;20053;-93
2022/06/12 09:22:41;;;;;;;7.43;2.17;;;20.00;82.80;;;;;;5013382;28;20022;-94
2022/06/12 09:25:19;;;;;;;8.27;1.33;;;20.10;79.00;;;;;;5006007;28;20046;-93
2022/06/12 09:27:44;;;;;;;9.00;1.15;;;20.30;79.20;;;;;;5014838;28;20044;-94
2022/06/12 09:30:17;;;;;;;7.18;1.52;;;20.40;77.60;;;;;;5030207;28;20127;-93
2022/06/12 09:33:14;;;;;;;6.18;1.02;;;20.50;74.50;;;;;;5013654;28;20085;-93
2022/06/12 09:36:17;;;;;;;6.28;1.08;;;20.60;73.00;;;;;;5013881;28;20049;-92
2022/06/12 09:38:49;;;;;;;7.82;0.90;;;20.70;71.30;;;;;;5013986;28;20022;-93
2022/06/12 09:41:18;;;;;;;6.75;1.35;;;20.70;70.10;;;;;;5014051;28;20090;-91
2022/06/12 09:44:12;;;;;;;7.00;0.93;;;20.80;68.20;;;;;;5015080;28;20024;-93
2022/06/12 09:47:04;;;;;;;7.47;1.63;;;20.90;67.20;;;;;;5013791;28;20088;-93
2022/06/12 09:49:38;;;;;;;10.27;1.67;;;20.90;67.60;;;;;;5014576;28;20022;-91
2022/06/12 09:52:25;;;;;;;10.27;1.55;;;21.00;67.90;;;;;;5017947;28;20026;-91
2022/06/12 09:55:01;;;;;;;10.23;1.58;;;21.10;68.00;;;;;;5030765;28;20096;-93
2022/06/12 09:57:35;;;;;;;10.30;1.60;;;21.20;68.20;;;;;;5035488;22;20046;-78
2022/06/12 10:00:07;;;;;;;6.72;1.55;;;21.30;68.60;;;;;;5012552;28;20026;-76
2022/06/12 10:02:40;;;;;;;7.45;1.23;;;21.40;67.70;;;;;;5015777;28;20084;-80
2022/06/12 10:05:38;;;;;;;10.60;1.90;;;21.40;67.60;;;;;;5016331;28;20022;-77
2022/06/12 10:08:16;;;;;;;13.15;2.28;;;21.40;67.70;;;;;;5007464;28;20084;-79
2022/06/12 10:10:49;;;;;;;8.15;1.55;;;21.50;67.90;;;;;;5013966;28;20026;-80
2022/06/12 10:13:28;;;;;;;10.65;2.55;;;21.60;68.20;;;;;;5002719;28;20039;-79
2022/06/12 10:16:00;;;;;;;9.40;2.05;;;21.70;68.30;;;;;;5009821;28;20025;-81
2022/06/12 10:18:36;;;;;;;8.88;2.30;;;21.80;67.60;;;;;;5015980;28;20025;-80
2022/06/12 10:21:09;;;;;;;8.73;1.38;;;21.90;67.10;;;;;;5015034;28;20474;-83
2022/06/12 10:23:36;;;;;;;11.18;2.13;;;22.00;67.10;;;;;;5016664;28;20072;-82
2022/06/12 10:26:28;;;;;;;7.13;1.67;;;22.10;65.80;;;;;;4998613;28;20034;-79
2022/06/12 10:29:03;;;;;;;11.43;1.92;;;22.20;65.70;;;;;;5014545;28;20018;-81
2022/06/12 10:31:33;;;;;;;9.23;1.98;;;22.40;65.30;;;;;;5014120;28;20030;-79
2022/06/12 10:34:16;;;;;;;11.30;2.42;;;22.60;65.10;;;;;;5015356;28;20025;-82
2022/06/12 10:36:42;;;;;;;8.93;1.77;;;22.70;64.10;;;;;;5016451;28;20025;-79
2022/06/12 10:39:19;;;;;;;9.35;1.83;;;22.90;63.60;;;;;;4998669;28;20061;-77
2022/06/12 10:41:59;;;;;;;12.60;2.20;;;23.10;63.50;;;;;;5007517;28;20017;-79
2022/06/12 10:44:53;;;;;;;6.53;1.40;;;23.10;62.90;;;;;;5008267;28;20026;-80
2022/06/12 10:47:21;;;;;;;9.70;1.83;;;23.40;63.10;;;;;;5026578;28;20077;-77
2022/06/12 10:50:08;;;;;;;10.48;1.35;;;23.50;62.20;;;;;;5000999;28;20026;-78
2022/06/12 10:52:34;;;;;;;9.52;1.75;;;23.60;61.50;;;;;;5005777;28;20030;-78
2022/06/12 10:55:00;;;;;;;6.45;1.40;;;23.60;60.70;;;;;;5001854;28;20081;-78
2022/06/12 10:57:26;;;;;;;6.60;1.20;;;23.60;60.50;;;;;;4987739;28;20137;-79
2022/06/12 11:00:29;;;;;;;8.68;1.70;;;23.50;60.50;;;;;;5008945;28;20125;-77
2022/06/12 11:03:41;;;;;;;9.00;1.80;;;23.30;59.70;;;;;;4977652;28;20033;-77
2022/06/12 11:06:42;;;;;;;7.72;1.27;;;23.30;60.40;;;;;;5004259;28;20049;-79
2022/06/12 11:10:07;;;;;;;8.38;1.70;;;23.80;60.10;;;;;;5019090;28;20068;-78
2022/06/12 11:16:22;;;;;;;8.00;1.33;;;24.90;58.10;;;;;;4975707;28;20094;-80
2022/06/12 11:19:08;;;;;;;6.97;1.20;;;24.90;55.70;;;;;;4974451;28;20035;-78
2022/06/12 11:21:52;;;;;;;5.97;1.02;;;24.60;55.30;;;;;;5005135;28;20034;-75
2022/06/12 11:25:03;;;;;;;6.45;1.10;;;24.50;55.60;;;;;;5001827;28;20113;-76
2022/06/12 11:28:12;;;;;;;9.48;1.63;;;24.50;55.00;;;;;;4994223;28;20038;-75
2022/06/12 11:31:22;;;;;;;4.97;1.23;;;24.30;55.60;;;;;;5011132;28;20121;-79
2022/06/12 11:33:51;;;;;;;4.95;1.38;;;24.30;55.80;;;;;;5013154;28;20030;-75
2022/06/12 11:36:54;;;;;;;6.28;1.17;;;24.30;56.20;;;;;;5013098;28;20503;-79
2022/06/12 11:40:02;;;;;;;3.85;1.05;;;24.40;56.40;;;;;;5002960;28;20030;-76
2022/06/12 11:42:58;;;;;;;6.70;1.10;;;24.40;56.50;;;;;;5013252;28;20026;-79
2022/06/12 11:45:48;;;;;;;6.63;1.00;;;24.40;56.50;;;;;;4996595;28;20100;-77
2022/06/12 11:48:43;;;;;;;5.97;1.10;;;24.40;56.30;;;;;;5012846;28;20026;-77
2022/06/12 11:51:21;;;;;;;5.50;1.45;;;24.40;56.30;;;;;;5012751;28;20026;-77
2022/06/12 11:54:05;;;;;;;4.25;0.90;;;24.50;56.30;;;;;;5004143;28;20027;-76
2022/06/12 11:56:43;;;;;;;3.40;0.70;;;24.50;56.20;;;;;;5009021;28;20401;-76
2022/06/12 11:59:18;;;;;;;5.30;0.80;;;24.50;56.00;;;;;;5012267;28;20037;-76
2022/06/12 12:01:57;;;;;;;4.32;1.35;;;24.40;55.80;;;;;;5009035;28;20042;-78
2022/06/12 12:04:48;;;;;;;3.85;0.73;;;24.40;55.80;;;;;;5024948;28;20022;-78
2022/06/12 12:07:39;;;;;;;7.28;1.10;;;24.50;55.00;;;;;;5012401;28;20424;-80
2022/06/12 12:10:15;;;;;;;5.65;0.90;;;24.50;54.90;;;;;;5011191;28;20025;-78
2022/06/12 12:12:46;;;;;;;5.38;0.90;;;24.70;54.70;;;;;;5004811;28;20096;-77
2022/06/12 12:15:23;;;;;;;4.57;1.02;;;24.60;54.30;;;;;;5009086;28;20481;-76
2022/06/12 12:17:52;;;;;;;5.53;0.82;;;24.80;54.30;;;;;;5009811;28;20021;-77
2022/06/12 12:20:21;;;;;;;4.05;0.85;;;25.00;53.80;;;;;;5011482;28;20022;-78
2022/06/12 12:22:57;;;;;;;8.65;0.90;;;25.10;53.50;;;;;;5010231;28;20466;-77
2022/06/12 12:25:38;;;;;;;5.97;0.90;;;25.40;53.30;;;;;;5011823;28;20068;-79
2022/06/12 12:28:28;;;;;;;3.92;0.82;;;25.60;53.00;;;;;;5011699;28;20053;-85
2022/06/12 12:31:00;;;;;;;4.68;0.80;;;25.70;52.60;;;;;;5016640;28;20036;-82
2022/06/12 12:33:27;;;;;;;5.18;0.80;;;25.90;52.40;;;;;;5006185;28;20030;-83
2022/06/12 12:41:42;;;;;;;2.40;0.60;;;26.00;51.50;;;;;;5000806;28;20041;-83
2022/06/12 12:44:08;;;;;;;4.95;0.60;;;26.00;51.40;;;;;;5013915;28;20382;-83
2022/06/12 12:46:52;;;;;;;4.78;0.80;;;26.10;51.10;;;;;;5013152;28;20033;-82
2022/06/12 12:49:34;;;;;;;5.30;0.63;;;26.10;50.20;;;;;;5002189;28;20028;-83
2022/06/12 12:52:11;;;;;;;3.78;0.80;;;26.20;50.00;;;;;;5007545;28;20026;-82
2022/06/12 12:54:55;;;;;;;6.05;0.95;;;26.30;49.70;;;;;;5000158;28;20034;-83
2022/06/12 12:57:35;;;;;;;3.25;0.60;;;26.30;49.40;;;;;;5007820;28;20124;-84
2022/06/12 13:00:02;;;;;;;4.47;0.73;;;26.40;49.20;;;;;;5011493;28;20029;-83
2022/06/12 13:02:31;;;;;;;4.90;0.70;;;26.40;49.20;;;;;;5007656;28;20034;-84
2022/06/12 13:05:00;;;;;;;3.83;0.75;;;26.60;48.70;;;;;;5010458;28;20038;-77
2022/06/12 13:07:51;;;;;;;3.20;0.60;;;26.80;48.20;;;;;;5004319;28;20109;-79
2022/06/12 13:10:52;;;;;;;2.22;0.60;;;26.90;47.10;;;;;;4998341;28;20541;-77
2022/06/12 13:13:43;;;;;;;2.42;0.40;;;27.00;46.60;;;;;;5009937;28;20022;-82
2022/06/12 13:16:32;;;;;;;2.60;0.50;;;27.10;45.90;;;;;;5008787;28;20501;-79
2022/06/12 13:19:06;;;;;;;2.28;0.40;;;27.10;45.90;;;;;;4994188;28;20026;-78
2022/06/12 13:21:59;;;;;;;4.43;0.50;;;27.20;45.00;;;;;;4992950;28;20133;-80
2022/06/12 13:24:27;;;;;;;1.45;0.40;;;27.30;44.40;;;;;;4993379;28;20027;-80
2022/06/12 13:26:57;;;;;;;2.10;0.40;;;27.50;44.50;;;;;;5008772;28;20026;-80
2022/06/12 13:29:25;;;;;;;2.50;0.40;;;27.60;43.80;;;;;;4992875;28;20022;-75
2022/06/12 13:31:58;;;;;;;2.65;0.40;;;27.80;44.60;;;;;;4993012;28;20034;-78
2022/06/12 13:34:25;;;;;;;3.38;0.55;;;27.90;43.30;;;;;;5003534;28;20023;-79
2022/06/12 13:36:52;;;;;;;2.85;0.32;;;28.00;43.00;;;;;;5006654;28;20462;-80
2022/06/12 13:39:25;;;;;;;1.55;0.40;;;28.10;42.70;;;;;;5014670;28;20022;-74
2022/06/12 13:41:56;;;;;;;1.90;0.40;;;28.20;43.00;;;;;;4996855;28;20033;-78
2022/06/12 13:44:32;;;;;;;1.58;0.40;;;28.30;42.20;;;;;;5002187;28;20026;-76
2022/06/12 13:47:14;;;;;;;2.78;0.45;;;28.40;41.90;;;;;;5016243;28;20030;-78